Bettles Airport Bettles US
ICAO: PABT
IATA:
Category: Medium
Scheduled Services:

Elevation: 647 ft
TransAlt. 18000 ft.

Airport Communications:
ASOS:135.45
ANCHORAGE CNTR:124.6
CTAF:122.9
FAIRBANKS RDO:122.2
TWEB:116

PABT Zoom In..

If Map Doesn't Load, Click Here

Runways:

(A) RW 01 length 5190 ft width 150 ft
LOC 108.70 / hdg 12

(B) RW 19 length 5190 ft width 150 ft
LOC 108.70 / hdg 192

Location; PABT
Day. 26 / Time. 09.53 Zulu
* Altimeter: 30.20
* Temperature: 02° c. 35.6°f.
* Wind from: 000° Speed 00 kn.
Dewpoint: 00° c.
Visibility: 4 Statute Miles.
Clouds: Overcast 500 ft.
Conditions: Light Rain.Conditions: Mist.

PABT 260953Z 00000KT 4SM -RA BR OVC005 02/00 A3020 RMK AO2 SLP241 P0000 T00170000 $


Wind - Calm.

 
 
jpsmedia.com for Web Design worldairports.se 2018   terms of use